createdAt,value
2023-03-26T00:04:00.707Z,82
2023-03-26T00:09:00.510Z,81
2023-03-26T00:14:01.351Z,81
2023-03-26T00:19:08.927Z,80
2023-03-26T00:24:09.183Z,79
2023-03-26T00:29:09.450Z,79
2023-03-26T00:34:06.768Z,79
2023-03-26T00:39:06.598Z,79
2023-03-26T00:44:08.127Z,79
2023-03-26T00:49:05.210Z,79
2023-03-26T00:54:05.284Z,79
2023-03-26T00:59:05.537Z,78
2023-03-26T01:04:17.936Z,78
2023-03-26T01:08:54.002Z,77
2023-03-26T01:13:53.851Z,77
2023-03-26T01:18:54.711Z,77
2023-03-26T01:23:50.806Z,77
2023-03-26T01:28:51.613Z,77
2023-03-26T01:33:50.265Z,77
2023-03-26T01:38:49.958Z,77
2023-03-26T01:43:47.829Z,76
2023-03-26T01:48:47.328Z,77
2023-03-26T01:53:46.441Z,77
2023-03-26T01:58:47.120Z,76
2023-03-26T02:05:18.161Z,76
2023-03-26T02:15:17.052Z,77
2023-03-26T02:20:17.418Z,78
2023-03-26T02:25:17.513Z,78
2023-03-26T02:30:18.200Z,78
2023-03-26T02:35:15.413Z,79
2023-03-26T02:40:15.203Z,78
2023-03-26T02:45:16.808Z,78
2023-03-26T02:50:13.672Z,78
2023-03-26T02:55:13.169Z,78
2023-03-26T02:59:17.893Z,78
2023-03-26T03:04:15.634Z,78
2023-03-26T03:09:15.016Z,78
2023-03-26T03:19:13.873Z,78
2023-03-26T03:24:14.649Z,78
2023-03-26T03:34:12.736Z,80
2023-03-26T03:39:12.470Z,80
2023-03-26T03:44:12.852Z,81
2023-03-26T03:49:11.583Z,81
2023-03-26T03:54:11.972Z,81
2023-03-26T04:04:02.763Z,81
2023-03-26T04:08:58.483Z,81
2023-03-26T04:13:59.091Z,82
2023-03-26T04:18:57.969Z,82
2023-03-26T04:23:58.204Z,82
2023-03-26T04:28:55.573Z,81
2023-03-26T04:33:55.328Z,81
2023-03-26T04:38:54.525Z,81
2023-03-26T04:43:54.289Z,82
2023-03-26T04:48:53.919Z,82
2023-03-26T04:53:53.560Z,83
2023-03-26T04:58:53.794Z,84
2023-03-26T05:03:53.395Z,84
2023-03-26T05:08:54.567Z,85
2023-03-26T05:13:52.146Z,86
2023-03-26T05:18:51.067Z,87
2023-03-26T05:23:51.173Z,87
2023-03-26T05:28:50.123Z,88
2023-03-26T05:33:50.448Z,87
2023-03-26T05:38:49.145Z,87
2023-03-26T05:43:48.612Z,87
2023-03-26T05:48:49.841Z,87
2023-03-26T05:53:46.256Z,86
2023-03-26T05:58:46.111Z,85
2023-03-26T06:05:19.313Z,84
2023-03-26T06:10:18.220Z,83
2023-03-26T06:15:16.282Z,82
2023-03-26T06:20:16.316Z,81
2023-03-26T06:25:14.516Z,82
2023-03-26T06:30:13.979Z,82
2023-03-26T06:35:14.181Z,82
2023-03-26T06:40:14.723Z,82
2023-03-26T06:50:13.728Z,85
2023-03-26T06:55:12.744Z,84
2023-03-26T07:04:32.220Z,82
2023-03-26T07:29:30.014Z,85
2023-03-26T07:58:28.229Z,90
2023-03-26T08:03:28.293Z,90
2023-03-26T08:08:27.172Z,91
2023-03-26T08:13:26.994Z,92
2023-03-26T08:18:26.254Z,92
2023-03-26T08:23:26.044Z,93
2023-03-26T08:28:26.034Z,93
2023-03-26T08:33:25.774Z,93
2023-03-26T08:38:23.390Z,94
2023-03-26T08:43:23.134Z,94
2023-03-26T08:48:22.691Z,94
2023-03-26T08:53:22.428Z,94
2023-03-26T08:58:22.098Z,94
2023-03-26T09:04:42.122Z,94
2023-03-26T09:09:42.011Z,94
2023-03-26T09:14:43.030Z,94
2023-03-26T09:19:39.565Z,94
2023-03-26T09:24:39.809Z,94
2023-03-26T09:29:40.299Z,93
2023-03-26T09:34:39.453Z,93
2023-03-26T09:39:37.255Z,92
2023-03-26T09:44:37.318Z,91
2023-03-26T09:49:36.841Z,89
2023-03-26T09:54:36.509Z,89
2023-03-26T09:58:56.243Z,89
2023-03-26T10:05:16.528Z,90
2023-03-26T10:10:16.615Z,89
2023-03-26T10:15:14.368Z,87
2023-03-26T10:20:14.696Z,75
2023-03-26T10:25:14.076Z,69
2023-03-26T10:30:14.083Z,68
2023-03-26T10:35:14.576Z,64
2023-03-26T10:40:14.336Z,57
2023-03-26T10:45:16.408Z,57
2023-03-26T10:50:16.055Z,55
2023-03-26T10:55:15.434Z,56
2023-03-26T11:14:45.272Z,53
2023-03-26T11:24:32.607Z,49
2023-03-26T11:29:42.901Z,51
2023-03-26T12:04:18.330Z,53
2023-03-26T12:09:17.425Z,51
2023-03-26T12:14:16.702Z,51
2023-03-26T12:19:15.940Z,52
2023-03-26T12:24:15.375Z,52
2023-03-26T12:30:08.393Z,49
2023-03-26T12:34:15.020Z,49
2023-03-26T12:40:20.684Z,47
2023-03-26T12:54:14.908Z,52
2023-03-26T12:58:56.827Z,46
2023-03-26T13:03:56.968Z,45
2023-03-26T13:08:56.346Z,46
2023-03-26T13:13:56.239Z,46
2023-03-26T13:18:54.728Z,47
2023-03-26T13:23:54.472Z,49
2023-03-26T13:28:53.845Z,46
2023-03-26T13:33:54.792Z,47
2023-03-26T13:38:58.679Z,45
2023-03-26T13:43:51.166Z,46
2023-03-26T13:48:50.266Z,47
2023-03-26T13:53:50.057Z,50
2023-03-26T13:58:47.448Z,52
2023-03-26T14:00:42.824Z,53
2023-03-26T14:59:27.284Z,90
2023-03-26T15:04:23.273Z,89
2023-03-26T15:09:22.805Z,90
2023-03-26T15:14:22.375Z,90
2023-03-26T15:19:22.074Z,91
2023-03-26T15:24:21.936Z,91
2023-03-26T15:29:21.546Z,91
2023-03-26T15:34:21.506Z,90
2023-03-26T15:39:21.081Z,90
2023-03-26T15:44:40.922Z,89
2023-03-26T15:49:20.366Z,89
2023-03-26T15:54:18.978Z,89
2023-03-26T15:59:14.760Z,89
2023-03-26T16:04:13.770Z,89
2023-03-26T16:09:13.818Z,89
2023-03-26T16:14:13.643Z,89
2023-03-26T16:24:12.795Z,90
2023-03-26T16:29:12.729Z,90
2023-03-26T16:34:00.176Z,90
2023-03-26T16:38:59.921Z,90
2023-03-26T16:43:59.497Z,90
2023-03-26T16:48:59.124Z,90
2023-03-26T16:53:57.831Z,89
2023-03-26T16:58:56.990Z,89
2023-03-26T17:03:57.199Z,89
2023-03-26T17:08:56.547Z,88
2023-03-26T17:13:57.911Z,88
2023-03-26T17:18:54.194Z,88
2023-03-26T17:23:54.117Z,87
2023-03-26T17:28:53.486Z,87
2023-03-26T17:33:53.313Z,87
2023-03-26T17:38:55.726Z,87
2023-03-26T17:43:50.617Z,87
2023-03-26T17:48:49.987Z,87
2023-03-26T17:53:49.830Z,87
2023-03-26T17:58:49.078Z,87
2023-03-26T18:03:48.767Z,87
2023-03-26T18:08:48.495Z,87
2023-03-26T18:13:48.466Z,87
2023-03-26T18:18:45.978Z,88
2023-03-26T18:23:45.966Z,88
2023-03-26T18:28:45.395Z,88
2023-03-26T18:33:45.031Z,88
2023-03-26T18:38:48.330Z,88
2023-03-26T18:43:45.888Z,87
2023-03-26T18:48:44.206Z,87
2023-03-26T18:53:43.949Z,87
2023-03-26T18:58:44.608Z,87
2023-03-26T19:05:15.538Z,88
2023-03-26T19:10:15.771Z,88
2023-03-26T19:15:13.736Z,88
2023-03-26T19:20:13.310Z,89
2023-03-26T19:25:13.454Z,89
2023-03-26T19:30:12.786Z,89
2023-03-26T19:35:12.981Z,89
2023-03-26T19:40:12.852Z,88
2023-03-26T19:45:00.776Z,88
2023-03-26T19:50:00.775Z,88
2023-03-26T19:55:10.989Z,88
2023-03-26T19:59:22.277Z,88
2023-03-26T20:04:21.546Z,88
2023-03-26T20:09:20.871Z,88
2023-03-26T20:14:20.965Z,88
2023-03-26T20:19:20.412Z,88
2023-03-26T20:24:21.553Z,88
2023-03-26T20:29:17.940Z,88
2023-03-26T20:34:17.988Z,88
2023-03-26T20:39:17.380Z,88
2023-03-26T20:44:17.395Z,89
2023-03-26T20:49:14.902Z,90
2023-03-26T20:54:15.043Z,90
2023-03-26T20:59:10.805Z,91
2023-03-26T21:03:59.929Z,91
2023-03-26T21:08:59.437Z,92
2023-03-26T21:13:59.085Z,92
2023-03-26T21:18:58.340Z,92
2023-03-26T21:23:59.030Z,93
2023-03-26T21:28:56.402Z,93
2023-03-26T21:33:56.147Z,93
2023-03-26T21:38:55.732Z,93
2023-03-26T21:43:55.594Z,93
2023-03-26T21:48:55.003Z,93
2023-03-26T21:53:54.382Z,93
2023-03-26T21:58:54.785Z,93
2023-03-26T22:03:54.233Z,93
2023-03-26T22:08:55.618Z,93
2023-03-26T22:13:52.144Z,93
2023-03-26T22:18:52.410Z,94
2023-03-26T22:23:51.680Z,94
2023-03-26T22:28:51.572Z,94
2023-03-26T22:33:48.799Z,94
2023-03-26T22:38:48.868Z,94
2023-03-26T22:43:48.229Z,94
2023-03-26T22:48:47.938Z,94
2023-03-26T22:53:47.294Z,94
2023-03-26T22:58:47.122Z,95
2023-03-26T23:05:08.514Z,95
2023-03-26T23:59:08.090Z,95
